Time;durP1;ratioP1;P1;durP2;ratioP2;P2;SDS_P1;SDS_P2;PMS_P1;PMS_P2;Temp;Humidity;BMP_temperature;BMP_pressure;BME280_temperature;BME280_humidity;BME280_pressure;Samples;Min_cycle;Max_cycle;Signal;HPM_P1;HPM_P2
2022/08/08 00:01:30;;;;;;;7.57;5.72;;;16.30;99.90;;;;;;5066125;28;20382;-81
2022/08/08 00:04:11;;;;;;;8.15;6.10;;;16.20;99.90;;;;;;5059978;28;20398;-82
2022/08/08 00:06:56;;;;;;;10.05;6.40;;;16.10;99.90;;;;;;5050869;28;20442;-82
2022/08/08 00:09:39;;;;;;;8.38;6.70;;;16.10;99.90;;;;;;5064122;28;20492;-82
2022/08/08 00:12:09;;;;;;;8.95;6.70;;;16.00;99.90;;;;;;5068835;28;20511;-82
2022/08/08 00:15:00;;;;;;;10.57;6.50;;;16.00;99.90;;;;;;5069742;28;20037;-81
2022/08/08 00:17:25;;;;;;;8.60;6.57;;;16.00;99.90;;;;;;5065445;28;20052;-81
2022/08/08 00:19:59;;;;;;;9.23;7.10;;;16.00;99.90;;;;;;5047397;28;20174;-82
2022/08/08 00:22:41;;;;;;;9.73;7.15;;;16.00;99.90;;;;;;5068839;28;20511;-83
2022/08/08 00:25:18;;;;;;;9.32;7.72;;;16.00;99.90;;;;;;5050174;28;20048;-82
2022/08/08 00:27:46;;;;;;;8.85;7.05;;;16.00;99.90;;;;;;5066903;28;20045;-83
2022/08/08 00:30:12;;;;;;;8.75;7.63;;;15.90;99.90;;;;;;5042329;28;20506;-82
2022/08/08 00:32:56;;;;;;;9.73;7.30;;;15.90;99.90;;;;;;5052656;28;20552;-83
2022/08/08 00:35:42;;;;;;;7.90;6.88;;;15.80;99.90;;;;;;5060272;28;20091;-81
2022/08/08 00:38:26;;;;;;;8.93;7.38;;;15.80;99.90;;;;;;5062822;28;20582;-82
2022/08/08 00:41:11;;;;;;;11.15;7.50;;;15.70;99.90;;;;;;5064412;28;20563;-81
2022/08/08 00:43:36;;;;;;;9.23;7.15;;;15.70;99.90;;;;;;5050237;28;20526;-81
2022/08/08 00:46:20;;;;;;;9.43;7.35;;;15.70;99.90;;;;;;5067042;28;20041;-82
2022/08/08 00:49:06;;;;;;;9.40;7.30;;;15.70;99.90;;;;;;5045704;28;20127;-82
2022/08/08 00:51:38;;;;;;;10.48;7.68;;;15.60;99.90;;;;;;5066714;28;20514;-82
2022/08/08 00:54:06;;;;;;;10.38;7.75;;;15.60;99.90;;;;;;5063863;28;20048;-82
2022/08/08 00:57:09;;;;;;;10.10;7.07;;;15.50;99.90;;;;;;5065607;28;20040;-81
2022/08/08 01:00:00;;;;;;;8.95;7.10;;;15.50;99.90;;;;;;5049865;28;20044;-83
2022/08/08 01:02:40;;;;;;;10.38;7.50;;;15.50;99.90;;;;;;5065364;28;20048;-82
2022/08/08 01:05:45;;;;;;;9.60;6.78;;;15.60;99.90;;;;;;5046948;28;20049;-80
2022/08/08 01:08:41;;;;;;;9.25;7.40;;;15.60;99.90;;;;;;5056292;28;20044;-81
2022/08/08 01:11:37;;;;;;;10.23;7.32;;;15.50;99.90;;;;;;5044547;28;20036;-81
2022/08/08 01:14:20;;;;;;;8.95;6.93;;;15.40;99.90;;;;;;5067966;28;20075;-81
2022/08/08 01:17:18;;;;;;;7.75;5.82;;;15.30;99.90;;;;;;5065803;28;20744;-80
2022/08/08 01:20:05;;;;;;;7.38;5.35;;;15.30;99.90;;;;;;5041428;28;20491;-84
2022/08/08 01:22:56;;;;;;;7.93;5.78;;;15.20;99.90;;;;;;5062263;28;20136;-81
2022/08/08 01:26:06;;;;;;;9.43;6.50;;;15.10;99.90;;;;;;5063957;28;20932;-82
2022/08/08 01:29:06;;;;;;;9.48;7.00;;;15.20;99.90;;;;;;5046473;28;20148;-84
2022/08/08 01:32:10;;;;;;;8.43;6.80;;;15.20;99.90;;;;;;5060099;28;20045;-84
2022/08/08 01:34:51;;;;;;;8.50;7.30;;;15.30;99.90;;;;;;5062589;28;20154;-84
2022/08/08 01:38:02;;;;;;;9.90;7.68;;;15.20;99.90;;;;;;5063190;28;20048;-85
2022/08/08 01:40:43;;;;;;;7.78;6.55;;;15.10;99.90;;;;;;5045038;28;20597;-83
2022/08/08 01:43:23;;;;;;;6.28;5.68;;;15.00;99.90;;;;;;5061471;28;20051;-85
2022/08/08 01:46:21;;;;;;;8.68;6.63;;;14.90;99.90;;;;;;5066935;28;20059;-82
2022/08/08 01:49:07;;;;;;;7.55;5.82;;;14.80;99.90;;;;;;5061880;28;20048;-84
2022/08/08 01:51:57;;;;;;;6.47;5.78;;;14.80;99.90;;;;;;5066002;28;20050;-82
2022/08/08 01:54:47;;;;;;;7.95;5.93;;;14.80;99.90;;;;;;5068886;28;20124;-83
2022/08/08 01:57:28;;;;;;;8.65;6.80;;;14.90;99.90;;;;;;5067554;28;20044;-85
2022/08/08 02:00:12;;;;;;;8.95;7.45;;;14.80;99.90;;;;;;5044002;28;21034;-84
2022/08/08 02:02:56;;;;;;;9.30;7.22;;;14.90;99.90;;;;;;5074989;28;20131;-84
2022/08/08 02:05:25;;;;;;;9.73;6.70;;;14.90;99.90;;;;;;5091925;28;20135;-83
2022/08/08 02:08:02;;;;;;;8.32;7.30;;;14.90;99.90;;;;;;5091493;28;20051;-84
2022/08/08 02:10:47;;;;;;;;;;;14.90;99.90;;;;;;5056114;28;20039;-83
2022/08/08 02:13:23;;;;;;;8.90;7.18;;;14.80;99.90;;;;;;5054055;28;20355;-81
2022/08/08 02:16:15;;;;;;;9.35;7.60;;;14.80;99.90;;;;;;5069638;28;20566;-83
2022/08/08 02:19:13;;;;;;;9.00;7.43;;;14.80;99.90;;;;;;5066603;28;20087;-85
2022/08/08 02:24:56;;;;;;;6.72;6.03;;;14.70;99.90;;;;;;5067172;28;20040;-82
2022/08/08 02:27:43;;;;;;;8.95;6.10;;;14.70;99.90;;;;;;5063241;28;20048;-83
2022/08/08 02:30:18;;;;;;;5.78;4.75;;;14.70;99.90;;;;;;5042723;28;20060;-82
2022/08/08 02:33:00;;;;;;;7.32;5.95;;;14.60;99.90;;;;;;5066293;28;20120;-84
2022/08/08 02:35:34;;;;;;;7.57;6.40;;;14.50;99.90;;;;;;5065005;28;20044;-83
2022/08/08 02:38:02;;;;;;;8.60;6.32;;;14.50;99.90;;;;;;5066545;28;20476;-84
2022/08/08 02:40:43;;;;;;;7.35;6.28;;;14.50;99.90;;;;;;5068403;28;20044;-85
2022/08/08 02:43:48;;;;;;;8.18;6.93;;;14.60;99.90;;;;;;5061398;28;20071;-84
2022/08/08 02:46:32;;;;;;;10.82;8.20;;;14.60;99.90;;;;;;5061431;28;20040;-82
2022/08/08 02:49:16;;;;;;;10.57;7.60;;;14.50;99.90;;;;;;5068021;28;20052;-81
2022/08/08 02:52:01;;;;;;;8.52;7.63;;;14.60;99.90;;;;;;5064882;28;20394;-84
2022/08/08 02:54:38;;;;;;;9.50;6.95;;;14.60;99.90;;;;;;5067536;28;20091;-81
2022/08/08 02:57:40;;;;;;;7.20;6.50;;;14.70;99.90;;;;;;5063702;28;20049;-82
2022/08/08 03:00:21;;;;;;;7.68;6.28;;;14.70;99.90;;;;;;5044471;28;20041;-81
2022/08/08 03:03:24;;;;;;;7.63;6.90;;;14.60;99.90;;;;;;5064580;28;20056;-81
2022/08/08 03:06:05;;;;;;;5.88;5.30;;;14.50;99.90;;;;;;5060937;28;20128;-83
2022/08/08 03:09:04;;;;;;;6.90;5.47;;;14.50;99.90;;;;;;5048783;28;20051;-82
2022/08/08 03:11:35;;;;;;;6.25;5.57;;;14.40;99.90;;;;;;5066066;28;20503;-83
2022/08/08 03:14:20;;;;;;;6.95;5.97;;;14.40;99.90;;;;;;5060054;28;20051;-83
2022/08/08 03:17:27;;;;;;;8.50;5.95;;;14.40;99.90;;;;;;5049288;28;20057;-81
2022/08/08 03:20:05;;;;;;;6.90;6.10;;;14.20;99.90;;;;;;5002484;28;20049;-82
2022/08/08 03:22:33;;;;;;;8.07;6.60;;;14.20;99.90;;;;;;4998933;28;20447;-84
2022/08/08 03:25:02;;;;;;;7.88;6.93;;;14.20;99.90;;;;;;5037518;28;20597;-80
2022/08/08 03:27:36;;;;;;;6.53;5.10;;;14.20;99.90;;;;;;5060533;28;20178;-82
2022/08/08 03:30:06;;;;;;;7.55;5.65;;;14.30;99.90;;;;;;5068669;28;20120;-82
2022/08/08 03:35:17;;;;;;;7.47;5.60;;;14.20;99.90;;;;;;5066001;28;20048;-82
2022/08/08 03:37:44;;;;;;;7.10;5.80;;;14.20;99.90;;;;;;5069629;28;20510;-83
2022/08/08 03:40:10;;;;;;;7.18;6.00;;;14.10;99.90;;;;;;5070009;28;20051;-83
2022/08/08 03:42:37;;;;;;;6.63;4.82;;;14.00;99.90;;;;;;5068973;28;20032;-82
2022/08/08 03:45:18;;;;;;;8.43;5.20;;;14.00;99.90;;;;;;5067124;28;20566;-82
2022/08/08 03:47:56;;;;;;;6.88;5.65;;;14.00;99.90;;;;;;5050468;28;20044;-81
2022/08/08 03:50:23;;;;;;;8.52;6.50;;;13.90;99.90;;;;;;5066796;28;20052;-83
2022/08/08 03:52:49;;;;;;;8.63;7.65;;;13.90;99.90;;;;;;5065535;28;20631;-80
2022/08/08 03:55:17;;;;;;;9.45;7.03;;;13.90;99.90;;;;;;5048143;28;20395;-81
2022/08/08 03:57:45;;;;;;;9.90;6.93;;;13.90;99.90;;;;;;5063992;28;20036;-82
2022/08/08 04:00:13;;;;;;;7.80;6.53;;;14.00;99.90;;;;;;5067679;28;20055;-82
2022/08/08 04:02:39;;;;;;;9.35;7.78;;;14.00;99.90;;;;;;5067862;28;20553;-80
2022/08/08 04:05:05;;;;;;;10.38;7.75;;;14.00;99.90;;;;;;5064754;28;20036;-81
2022/08/08 04:07:36;;;;;;;10.38;7.43;;;14.00;99.90;;;;;;5069784;28;20532;-82
2022/08/08 04:10:02;;;;;;;9.98;7.32;;;14.00;99.90;;;;;;5051002;28;20037;-82
2022/08/08 04:12:28;;;;;;;12.13;7.60;;;14.10;99.90;;;;;;5069433;28;20097;-81
2022/08/08 04:14:54;;;;;;;9.70;7.55;;;14.10;99.90;;;;;;5065407;28;20048;-83
2022/08/08 04:17:19;;;;;;;8.90;6.80;;;14.10;99.90;;;;;;5068082;28;20041;-83
2022/08/08 04:19:45;;;;;;;9.65;6.53;;;14.10;99.90;;;;;;5071020;28;20048;-82
2022/08/08 04:22:10;;;;;;;9.55;7.97;;;14.10;99.90;;;;;;5064940;28;20036;-81
2022/08/08 04:24:36;;;;;;;9.40;7.10;;;14.10;99.90;;;;;;5069886;28;20045;-81
2022/08/08 04:27:02;;;;;;;10.07;7.97;;;14.00;99.90;;;;;;5063842;28;20068;-80
2022/08/08 04:29:28;;;;;;;8.85;7.38;;;14.00;99.90;;;;;;5067077;28;20379;-82
2022/08/08 04:31:54;;;;;;;9.05;7.40;;;14.00;99.90;;;;;;5067609;28;20491;-82
2022/08/08 04:34:19;;;;;;;9.68;7.30;;;14.00;99.90;;;;;;5064692;28;20067;-80
2022/08/08 04:36:45;;;;;;;11.15;7.55;;;14.00;99.90;;;;;;5068386;28;20123;-82
2022/08/08 04:39:11;;;;;;;10.45;7.20;;;14.00;99.90;;;;;;5070562;28;20168;-81
2022/08/08 04:41:36;;;;;;;9.20;7.07;;;14.00;99.90;;;;;;5065733;28;20111;-81
2022/08/08 04:44:02;;;;;;;8.88;7.28;;;14.00;99.90;;;;;;5063746;28;20047;-83
2022/08/08 04:46:28;;;;;;;9.68;6.68;;;14.00;99.90;;;;;;5068119;28;20040;-82
2022/08/08 04:48:53;;;;;;;6.53;5.72;;;14.10;99.90;;;;;;5066770;28;20097;-82
2022/08/08 04:51:19;;;;;;;9.35;5.72;;;14.10;99.90;;;;;;5051613;28;20491;-81
2022/08/08 04:53:45;;;;;;;9.77;7.00;;;14.10;99.90;;;;;;5066325;28;20036;-81
2022/08/08 04:56:11;;;;;;;8.63;7.35;;;14.20;99.90;;;;;;5066381;28;20032;-80
2022/08/08 04:58:37;;;;;;;10.82;7.30;;;14.20;99.90;;;;;;5065165;28;20041;-82
2022/08/08 05:01:03;;;;;;;10.35;7.28;;;14.30;99.90;;;;;;5067564;28;20102;-82
2022/08/08 05:03:29;;;;;;;10.48;7.38;;;14.30;99.90;;;;;;5042729;28;20056;-83
2022/08/08 05:05:54;;;;;;;9.90;7.05;;;14.40;99.90;;;;;;5045599;28;20049;-82
2022/08/08 05:08:20;;;;;;;10.27;7.15;;;14.40;99.90;;;;;;5068178;28;20083;-82
2022/08/08 05:10:46;;;;;;;10.45;7.70;;;14.50;99.90;;;;;;5047745;28;20055;-81
2022/08/08 05:13:11;;;;;;;12.30;7.85;;;14.60;99.90;;;;;;5056878;28;20415;-82
2022/08/08 05:15:37;;;;;;;11.23;7.10;;;14.70;99.90;;;;;;5068312;28;20719;-82
2022/08/08 05:18:03;;;;;;;8.40;6.43;;;14.70;99.90;;;;;;5062765;28;20048;-75
2022/08/08 05:20:29;;;;;;;9.80;6.43;;;14.80;99.90;;;;;;5049853;28;20052;-80
2022/08/08 05:22:54;;;;;;;10.73;7.35;;;14.80;99.90;;;;;;5043152;28;20047;-81
2022/08/08 05:25:24;;;;;;;9.65;6.85;;;14.90;99.90;;;;;;5059818;28;20067;-80
2022/08/08 05:27:52;;;;;;;9.52;6.80;;;15.00;99.90;;;;;;5057385;28;20037;-80
2022/08/08 05:30:20;;;;;;;7.35;6.35;;;15.10;99.90;;;;;;5056642;28;20131;-81
2022/08/08 05:32:46;;;;;;;9.52;6.38;;;15.20;99.90;;;;;;5057487;28;20048;-75
2022/08/08 05:35:13;;;;;;;8.35;6.55;;;15.20;99.90;;;;;;5056273;28;20070;-80
2022/08/08 05:37:46;;;;;;;8.55;6.75;;;15.40;99.90;;;;;;5055731;28;20040;-81
2022/08/08 05:40:16;;;;;;;7.70;6.72;;;15.40;99.90;;;;;;5038046;28;20151;-81
2022/08/08 05:42:44;;;;;;;8.75;6.20;;;15.40;99.90;;;;;;5055014;28;20048;-80
2022/08/08 05:45:15;;;;;;;6.75;5.65;;;15.50;99.90;;;;;;5059179;28;20047;-82
2022/08/08 05:47:42;;;;;;;7.10;5.53;;;15.60;99.90;;;;;;5043859;28;20127;-83
2022/08/08 05:50:10;;;;;;;7.85;6.00;;;15.70;99.90;;;;;;5041657;28;20052;-81
2022/08/08 05:52:37;;;;;;;10.20;6.90;;;15.80;99.90;;;;;;5043436;28;20048;-80
2022/08/08 05:55:05;;;;;;;9.80;7.40;;;15.80;99.90;;;;;;5049927;28;20060;-82
2022/08/08 05:57:34;;;;;;;10.85;6.75;;;15.90;99.90;;;;;;5062809;28;20131;-78
2022/08/08 06:00:03;;;;;;;8.93;6.82;;;16.00;99.90;;;;;;5055910;28;20147;-82
2022/08/08 06:05:18;;;;;;;9.85;7.07;;;16.20;99.90;;;;;;5041174;28;20084;-81
2022/08/08 06:07:47;;;;;;;14.43;5.70;;;16.30;99.90;;;;;;5040544;28;20041;-82
2022/08/08 06:10:13;;;;;;;8.48;4.90;;;16.40;99.90;;;;;;5055736;28;20549;-80
2022/08/08 06:12:40;;;;;;;9.07;5.30;;;16.50;99.90;;;;;;5042245;28;20138;-80
2022/08/08 06:15:08;;;;;;;12.40;4.55;;;16.60;99.90;;;;;;5062865;28;20049;-81
2022/08/08 06:17:36;;;;;;;12.32;4.60;;;16.70;99.90;;;;;;5056995;28;20048;-80
2022/08/08 06:20:13;;;;;;;7.97;4.20;;;16.80;99.90;;;;;;5061418;28;20032;-81
2022/08/08 06:22:39;;;;;;;6.40;4.20;;;16.90;99.90;;;;;;5061501;28;20496;-81
2022/08/08 06:25:06;;;;;;;9.88;4.13;;;16.90;99.90;;;;;;5062916;28;20592;-81
2022/08/08 06:27:37;;;;;;;14.55;3.97;;;17.00;99.90;;;;;;5054212;28;20049;-82
2022/08/08 06:30:09;;;;;;;6.72;4.28;;;17.20;99.90;;;;;;5061889;28;20045;-81
2022/08/08 06:32:44;;;;;;;7.13;3.13;;;17.30;99.90;;;;;;5049595;28;20834;-81
2022/08/08 06:35:15;;;;;;;7.78;3.10;;;17.30;99.90;;;;;;5055760;28;20067;-80
2022/08/08 06:37:47;;;;;;;7.32;3.15;;;17.40;99.90;;;;;;5063744;28;20372;-83
2022/08/08 06:40:22;;;;;;;8.20;3.25;;;17.50;99.90;;;;;;5063095;28;20059;-77
2022/08/08 06:43:04;;;;;;;11.30;4.80;;;17.60;99.90;;;;;;5043392;28;20118;-80
2022/08/08 06:45:32;;;;;;;10.52;3.42;;;17.70;99.90;;;;;;5060769;28;20079;-87
2022/08/08 06:48:00;;;;;;;10.85;3.22;;;17.80;99.90;;;;;;5062745;28;20040;-80
2022/08/08 06:50:27;;;;;;;7.97;3.08;;;17.90;99.90;;;;;;5064761;28;20040;-84
2022/08/08 06:52:52;;;;;;;7.65;2.90;;;17.90;99.90;;;;;;5052990;28;20429;-85
2022/08/08 06:55:20;;;;;;;6.47;2.55;;;18.00;99.90;;;;;;5076747;28;20020;-83
2022/08/08 06:57:46;;;;;;;5.13;2.65;;;18.00;99.90;;;;;;5096842;28;20017;-85
2022/08/08 07:00:13;;;;;;;7.85;2.70;;;18.10;99.90;;;;;;5089810;28;20021;-88
2022/08/08 07:02:43;;;;;;;6.93;2.60;;;18.10;99.90;;;;;;5065472;28;20152;-85
2022/08/08 07:05:14;;;;;;;6.93;2.88;;;18.20;99.90;;;;;;5072221;28;20044;-84
2022/08/08 07:07:52;;;;;;;7.85;2.50;;;18.20;99.90;;;;;;5071441;28;20049;-81
2022/08/08 07:10:20;;;;;;;9.02;3.00;;;18.30;99.90;;;;;;5063515;28;20045;-88
2022/08/08 07:13:06;;;;;;;7.95;2.72;;;18.40;99.90;;;;;;5064244;28;20094;-87
2022/08/08 07:15:46;;;;;;;7.97;2.67;;;18.50;99.90;;;;;;5071016;28;20120;-85
2022/08/08 07:18:20;;;;;;;8.60;3.10;;;18.50;99.90;;;;;;5050223;28;21030;-85
2022/08/08 07:20:49;;;;;;;9.40;2.78;;;18.50;99.90;;;;;;5068973;28;20036;-86
2022/08/08 07:23:20;;;;;;;6.75;2.78;;;18.60;99.90;;;;;;5063628;28;20059;-78
2022/08/08 07:25:49;;;;;;;8.38;3.28;;;18.60;99.90;;;;;;5069810;28;20051;-87
2022/08/08 07:28:18;;;;;;;8.32;3.05;;;18.70;99.90;;;;;;5063938;28;20077;-85
2022/08/08 07:30:45;;;;;;;7.57;2.80;;;18.90;99.90;;;;;;5050613;28;20080;-84
2022/08/08 07:33:13;;;;;;;6.15;2.67;;;19.00;99.90;;;;;;5043735;28;20395;-87
2022/08/08 07:35:39;;;;;;;10.45;2.83;;;19.00;99.90;;;;;;5064411;28;20526;-85
2022/08/08 07:38:06;;;;;;;7.15;2.67;;;19.10;99.90;;;;;;5069197;28;20373;-86
2022/08/08 07:40:32;;;;;;;9.65;2.38;;;19.10;99.90;;;;;;5061222;28;20483;-84
2022/08/08 07:43:01;;;;;;;6.18;2.40;;;19.20;99.90;;;;;;5070542;28;20055;-87
2022/08/08 07:45:27;;;;;;;6.38;2.17;;;19.30;99.90;;;;;;5065761;28;20047;-83
2022/08/08 07:47:53;;;;;;;8.43;2.75;;;19.40;99.90;;;;;;5069438;28;20041;-84
2022/08/08 07:50:20;;;;;;;5.93;2.53;;;19.50;99.90;;;;;;5063428;28;20037;-81
2022/08/08 07:52:49;;;;;;;6.78;2.20;;;19.40;99.90;;;;;;5063452;28;20450;-85
2022/08/08 07:55:23;;;;;;;9.40;2.67;;;19.50;99.90;;;;;;5053867;28;20124;-79
2022/08/08 07:58:07;;;;;;;7.70;2.25;;;19.50;99.90;;;;;;5068037;28;20051;-77
2022/08/08 08:00:46;;;;;;;7.22;2.20;;;19.70;99.90;;;;;;5054547;28;20044;-76
2022/08/08 08:03:18;;;;;;;7.60;2.17;;;19.80;99.90;;;;;;5043575;28;20064;-77
2022/08/08 08:05:48;;;;;;;8.63;2.72;;;19.90;99.90;;;;;;5067465;28;20081;-77
2022/08/08 08:08:17;;;;;;;8.27;2.67;;;19.90;99.90;;;;;;5052002;28;20468;-77
2022/08/08 08:10:45;;;;;;;6.78;2.75;;;20.00;99.90;;;;;;5048670;28;20055;-75
2022/08/08 08:13:27;;;;;;;6.45;2.25;;;20.00;99.90;;;;;;5067829;28;20044;-80
2022/08/08 08:16:03;;;;;;;6.53;2.92;;;20.10;99.90;;;;;;5053347;28;20097;-78
2022/08/08 08:18:43;;;;;;;8.02;2.83;;;20.10;99.90;;;;;;5071387;28;20404;-78
2022/08/08 08:21:10;;;;;;;8.05;2.08;;;20.10;99.90;;;;;;5067800;28;20048;-80
2022/08/08 08:23:37;;;;;;;4.03;2.00;;;20.10;99.90;;;;;;5054089;28;20091;-86
2022/08/08 08:26:02;;;;;;;6.57;2.00;;;20.10;99.90;;;;;;5065740;28;20028;-79
2022/08/08 08:28:28;;;;;;;8.75;2.80;;;20.00;99.90;;;;;;5066464;28;20051;-82
2022/08/08 08:30:54;;;;;;;7.25;2.50;;;20.10;99.90;;;;;;5057172;28;20652;-82
2022/08/08 08:33:21;;;;;;;7.28;2.92;;;20.00;99.90;;;;;;5050288;28;20146;-71
2022/08/08 08:35:47;;;;;;;5.53;2.23;;;20.00;99.90;;;;;;5066394;28;20102;-74
2022/08/08 08:38:13;;;;;;;8.65;3.03;;;20.00;99.90;;;;;;5045118;28;20079;-75
2022/08/08 08:40:39;;;;;;;7.40;2.65;;;20.10;99.90;;;;;;5069375;28;20491;-76
2022/08/08 08:43:06;;;;;;;5.18;2.03;;;20.20;99.90;;;;;;5066168;28;20102;-77
2022/08/08 08:45:35;;;;;;;4.93;1.80;;;20.30;99.90;;;;;;5049039;28;20061;-79
2022/08/08 08:48:01;;;;;;;5.05;2.28;;;20.50;99.90;;;;;;5050276;28;20051;-77
2022/08/08 08:50:27;;;;;;;5.43;1.58;;;20.60;99.90;;;;;;5066678;28;20036;-78
2022/08/08 08:52:56;;;;;;;6.95;2.05;;;20.70;99.90;;;;;;5037307;28;20151;-79
2022/08/08 08:55:24;;;;;;;4.45;1.95;;;20.70;99.90;;;;;;5050308;28;20071;-78
2022/08/08 08:57:53;;;;;;;6.00;1.92;;;20.80;99.90;;;;;;5048212;28;20076;-79
2022/08/08 09:00:19;;;;;;;5.63;1.77;;;20.80;99.90;;;;;;5069987;28;20044;-75
2022/08/08 09:02:49;;;;;;;4.43;1.50;;;20.90;99.90;;;;;;5066967;28;20053;-91
2022/08/08 09:05:15;;;;;;;6.43;2.13;;;20.90;99.90;;;;;;5063870;28;20127;-88
2022/08/08 09:07:43;;;;;;;6.00;1.60;;;20.90;99.90;;;;;;5051712;28;20526;-85
2022/08/08 09:10:13;;;;;;;5.28;1.90;;;21.00;99.90;;;;;;5067802;28;20055;-88
2022/08/08 09:12:39;;;;;;;12.90;1.90;;;21.10;99.90;;;;;;5046401;28;20052;-80
2022/08/08 09:15:05;;;;;;;5.70;1.95;;;21.20;99.90;;;;;;5051744;28;20106;-78
2022/08/08 09:17:33;;;;;;;5.97;2.03;;;21.40;99.90;;;;;;5051526;28;20052;-78
2022/08/08 09:19:59;;;;;;;;;;;21.50;99.90;;;;;;5044326;28;20090;-77
2022/08/08 09:22:25;;;;;;;5.65;1.75;;;21.50;99.90;;;;;;5053810;28;19923;-78
2022/08/08 09:24:53;;;;;;;6.75;1.83;;;21.60;99.90;;;;;;5047293;28;20383;-78
2022/08/08 09:27:20;;;;;;;12.48;3.80;;;21.80;99.90;;;;;;5049918;28;20040;-78
2022/08/08 09:29:53;;;;;;;6.53;1.88;;;21.90;99.90;;;;;;5059324;28;20102;-80
2022/08/08 09:32:48;;;;;;;7.38;1.90;;;21.90;99.90;;;;;;5068722;28;20363;-76
2022/08/08 09:35:21;;;;;;;5.65;2.17;;;22.00;99.90;;;;;;5016708;28;20091;-80
2022/08/08 09:37:48;;;;;;;6.70;1.70;;;22.10;99.90;;;;;;5061470;28;20433;-81
2022/08/08 09:40:16;;;;;;;6.00;1.60;;;22.10;98.80;;;;;;5065579;28;20036;-77
2022/08/08 09:42:42;;;;;;;5.65;1.60;;;21.90;98.50;;;;;;5066653;28;20043;-83
2022/08/08 09:45:21;;;;;;;6.32;1.73;;;21.80;98.30;;;;;;5046933;28;20599;-78
2022/08/08 09:47:48;;;;;;;6.05;1.70;;;21.70;98.70;;;;;;5032349;28;20056;-79
2022/08/08 09:50:19;;;;;;;7.53;1.83;;;21.50;99.10;;;;;;5046943;28;21415;-85
2022/08/08 09:52:50;;;;;;;4.35;1.50;;;21.40;99.90;;;;;;5047166;28;20040;-79
2022/08/08 09:55:17;;;;;;;6.60;1.95;;;21.40;98.60;;;;;;5065344;28;20048;-80
2022/08/08 09:57:49;;;;;;;5.65;1.52;;;21.40;99.00;;;;;;5066880;28;20048;-86
2022/08/08 10:00:20;;;;;;;7.40;1.65;;;21.50;99.90;;;;;;5062726;28;20044;-86
2022/08/08 10:02:48;;;;;;;6.50;2.20;;;21.70;99.90;;;;;;5064325;28;20056;-88
2022/08/08 10:05:18;;;;;;;7.10;1.90;;;21.90;99.90;;;;;;5050519;28;20551;-84
2022/08/08 10:07:49;;;;;;;10.23;2.15;;;22.10;99.90;;;;;;5067732;28;20055;-87
2022/08/08 10:10:30;;;;;;;8.27;1.90;;;22.40;99.90;;;;;;5049465;28;20507;-88
2022/08/08 10:12:56;;;;;;;4.97;1.60;;;22.60;98.70;;;;;;5057509;28;20044;-87
2022/08/08 10:15:34;;;;;;;4.27;1.47;;;22.60;97.30;;;;;;5065158;28;20036;-85
2022/08/08 10:18:01;;;;;;;7.10;1.75;;;22.70;98.30;;;;;;5061717;28;20044;-85
2022/08/08 10:20:28;;;;;;;4.80;1.50;;;22.80;95.10;;;;;;5044594;28;20044;-88
2022/08/08 10:23:03;;;;;;;4.18;1.45;;;22.80;93.00;;;;;;5058673;28;20127;-88
2022/08/08 10:25:29;;;;;;;4.55;1.50;;;22.70;92.30;;;;;;5049580;28;20558;-86
2022/08/08 10:27:56;;;;;;;5.07;1.63;;;22.70;92.80;;;;;;5052468;28;20044;-83
2022/08/08 10:30:24;;;;;;;4.35;1.30;;;22.70;94.30;;;;;;5066339;28;20514;-82
2022/08/08 10:32:52;;;;;;;5.32;1.65;;;22.60;94.60;;;;;;5069896;28;20059;-77
2022/08/08 10:35:21;;;;;;;4.90;1.40;;;22.50;92.70;;;;;;5052724;28;20040;-79
2022/08/08 10:37:54;;;;;;;4.07;1.40;;;22.40;94.50;;;;;;5070136;28;20302;-80
2022/08/08 10:40:22;;;;;;;3.58;1.55;;;22.30;94.30;;;;;;5050699;28;20139;-80
2022/08/08 10:42:53;;;;;;;3.10;1.30;;;22.30;95.80;;;;;;5072325;28;20048;-79
2022/08/08 10:45:18;;;;;;;5.93;1.73;;;22.30;95.40;;;;;;5070136;28;20032;-79
2022/08/08 10:47:51;;;;;;;5.07;1.77;;;22.30;95.70;;;;;;5068457;28;20066;-86
2022/08/08 10:50:17;;;;;;;4.43;1.30;;;22.40;95.00;;;;;;5069037;28;20067;-86
2022/08/08 10:52:43;;;;;;;5.95;1.80;;;22.50;94.00;;;;;;5071240;28;20125;-82
2022/08/08 10:55:16;;;;;;;6.97;1.60;;;22.70;97.20;;;;;;5065211;28;20049;-74
2022/08/08 10:57:44;;;;;;;6.50;1.50;;;22.90;96.40;;;;;;5046277;28;20097;-75
2022/08/08 11:00:12;;;;;;;2.67;1.08;;;23.10;95.60;;;;;;5070089;28;20503;-75
2022/08/08 11:02:39;;;;;;;4.00;1.48;;;23.20;95.50;;;;;;5049404;28;20052;-76
2022/08/08 11:05:08;;;;;;;6.00;1.50;;;23.40;93.60;;;;;;5046734;28;20033;-75
2022/08/08 11:07:38;;;;;;;4.03;1.25;;;23.50;94.20;;;;;;5053751;28;20055;-75
2022/08/08 11:10:08;;;;;;;3.53;1.20;;;23.60;91.20;;;;;;5051729;28;20037;-75
2022/08/08 11:12:45;;;;;;;4.68;1.38;;;23.60;83.60;;;;;;5050293;28;20036;-75
2022/08/08 11:15:14;;;;;;;5.03;1.60;;;23.50;88.20;;;;;;5041564;28;20055;-76
2022/08/08 11:17:40;;;;;;;3.47;1.10;;;23.50;86.20;;;;;;5068226;28;20056;-76
2022/08/08 11:20:08;;;;;;;4.07;0.90;;;23.50;87.70;;;;;;5068194;28;20044;-76
2022/08/08 11:22:35;;;;;;;2.03;0.93;;;23.60;82.10;;;;;;5067747;28;20048;-77
2022/08/08 11:25:03;;;;;;;1.65;1.00;;;23.60;74.20;;;;;;5050867;28;20044;-75
2022/08/08 11:27:32;;;;;;;2.35;0.98;;;23.60;72.60;;;;;;5068535;28;20071;-74
2022/08/08 11:30:02;;;;;;;4.22;0.93;;;23.60;72.80;;;;;;5069518;28;20075;-76
2022/08/08 11:32:32;;;;;;;2.15;1.05;;;23.80;73.70;;;;;;5051440;28;20507;-76
2022/08/08 11:35:10;;;;;;;3.35;1.20;;;24.00;82.90;;;;;;5051520;28;20119;-77
2022/08/08 11:37:40;;;;;;;3.40;1.13;;;24.00;90.30;;;;;;5050768;28;20102;-77
2022/08/08 11:40:08;;;;;;;3.08;1.30;;;23.90;90.70;;;;;;5051074;28;20048;-76
2022/08/08 11:42:34;;;;;;;6.05;1.70;;;23.70;91.00;;;;;;5051824;28;20457;-76
2022/08/08 11:45:01;;;;;;;3.80;1.37;;;23.40;91.80;;;;;;5050331;28;20097;-76
2022/08/08 11:47:27;;;;;;;2.13;1.42;;;23.30;92.90;;;;;;5049337;28;20052;-76
2022/08/08 11:49:55;;;;;;;3.55;1.30;;;23.30;94.10;;;;;;5040653;28;20056;-78
2022/08/08 11:52:23;;;;;;;2.85;1.10;;;23.30;96.40;;;;;;5047163;28;20048;-82
2022/08/08 11:54:48;;;;;;;;;;;23.40;93.00;;;;;;5065242;28;20120;-81
2022/08/08 11:57:17;;;;;;;2.90;1.10;;;23.50;96.20;;;;;;5070611;28;20019;-79
2022/08/08 11:59:57;;;;;;;3.88;1.40;;;23.60;93.90;;;;;;5068683;28;20037;-80
2022/08/08 12:02:25;;;;;;;3.42;1.40;;;23.70;93.00;;;;;;5049982;28;20452;-81
2022/08/08 12:05:05;;;;;;;4.50;1.40;;;23.70;94.40;;;;;;5066182;28;20072;-84
2022/08/08 12:07:42;;;;;;;3.70;1.48;;;23.60;93.90;;;;;;5051350;28;20468;-77
2022/08/08 12:10:12;;;;;;;5.10;1.40;;;23.50;94.70;;;;;;5043789;28;20045;-83
2022/08/08 12:12:45;;;;;;;4.15;1.50;;;23.30;96.80;;;;;;5060539;28;20044;-77
2022/08/08 12:15:25;;;;;;;6.88;1.85;;;23.30;96.70;;;;;;5043529;28;20033;-74
2022/08/08 12:17:50;;;;;;;3.63;1.40;;;23.10;95.80;;;;;;5066992;28;20093;-73
2022/08/08 12:20:16;;;;;;;3.10;1.35;;;23.10;94.90;;;;;;5050113;28;20489;-73
2022/08/08 12:22:52;;;;;;;2.85;1.40;;;23.10;95.20;;;;;;5066098;28;20064;-79
2022/08/08 12:25:19;;;;;;;4.00;1.33;;;23.40;96.30;;;;;;5066279;28;20045;-81
2022/08/08 12:27:45;;;;;;;3.25;1.52;;;23.70;94.70;;;;;;5050183;28;20155;-80
2022/08/08 12:30:11;;;;;;;3.65;1.40;;;24.00;91.20;;;;;;5064849;28;20127;-80
2022/08/08 12:32:42;;;;;;;4.75;1.50;;;24.20;88.20;;;;;;5065851;28;20072;-80
2022/08/08 12:35:19;;;;;;;4.40;1.27;;;24.40;88.80;;;;;;5063957;28;20052;-78
2022/08/08 12:37:46;;;;;;;;;;;24.60;85.70;;;;;;5053347;28;20046;-81
2022/08/08 12:40:17;;;;;;;2.85;1.27;;;24.60;85.20;;;;;;5062657;28;19928;-81
2022/08/08 12:42:47;;;;;;;6.15;1.50;;;24.60;87.20;;;;;;5044298;28;21633;-74
2022/08/08 12:45:13;;;;;;;5.25;1.60;;;24.70;81.70;;;;;;5059199;28;20045;-74
2022/08/08 12:47:39;;;;;;;4.75;1.33;;;24.60;78.00;;;;;;5042504;28;20047;-76
2022/08/08 12:50:06;;;;;;;4.03;1.40;;;24.70;77.30;;;;;;5061982;28;20044;-75
2022/08/08 12:52:33;;;;;;;2.03;1.30;;;24.70;75.80;;;;;;5050144;28;20083;-75
2022/08/08 12:55:09;;;;;;;4.25;1.05;;;24.50;72.80;;;;;;5057029;28;20047;-75
2022/08/08 12:57:35;;;;;;;3.65;1.33;;;24.40;72.90;;;;;;5034427;28;20048;-74
2022/08/08 13:00:02;;;;;;;2.90;1.30;;;24.40;78.20;;;;;;5067422;28;20044;-75
2022/08/08 13:02:30;;;;;;;2.63;1.17;;;24.50;73.80;;;;;;5067031;28;20083;-75
2022/08/08 13:04:58;;;;;;;4.28;1.50;;;24.50;73.50;;;;;;5065004;28;20048;-75
2022/08/08 13:07:38;;;;;;;4.35;1.10;;;24.60;80.40;;;;;;5047869;28;20040;-75
2022/08/08 13:10:13;;;;;;;4.53;1.40;;;24.60;73.60;;;;;;5047542;28;20079;-75
2022/08/08 13:12:44;;;;;;;2.95;1.17;;;24.60;70.80;;;;;;5067270;28;20068;-75
2022/08/08 13:15:12;;;;;;;4.00;1.02;;;24.70;71.40;;;;;;5042093;28;20435;-75
2022/08/08 13:17:38;;;;;;;3.70;1.20;;;24.90;70.50;;;;;;5048229;28;20044;-75
2022/08/08 13:20:12;;;;;;;5.90;1.48;;;25.00;68.70;;;;;;5049193;28;20067;-75
2022/08/08 13:22:38;;;;;;;4.50;1.55;;;25.00;68.30;;;;;;5063624;28;20041;-75